createdAt,value
2018-12-02T05:00:56.073Z,994.63
2018-12-02T05:01:55.945Z,994.64
2018-12-02T05:03:48.610Z,994.57
2018-12-02T05:04:48.504Z,994.62
2018-12-02T05:06:41.192Z,994.50
2018-12-02T05:07:41.059Z,994.49
2018-12-02T05:09:33.744Z,994.44
2018-12-02T05:10:33.620Z,994.47
2018-12-02T05:12:26.284Z,994.42
2018-12-02T05:13:26.165Z,994.44
2018-12-02T05:15:18.846Z,994.37
2018-12-02T05:16:18.719Z,994.43
2018-12-02T05:18:11.390Z,994.40
2018-12-02T05:19:11.283Z,994.36
2018-12-02T05:21:03.958Z,994.32
2018-12-02T05:22:03.835Z,994.33
2018-12-02T05:23:56.492Z,994.29
2018-12-02T05:24:56.381Z,994.27
2018-12-02T05:26:49.063Z,994.23
2018-12-02T05:27:48.942Z,994.30
2018-12-02T05:29:41.616Z,994.24
2018-12-02T05:30:41.485Z,994.19
2018-12-02T05:32:34.233Z,994.18
2018-12-02T05:33:34.122Z,994.15
2018-12-02T05:35:26.803Z,994.17
2018-12-02T05:36:26.677Z,994.15
2018-12-02T05:38:19.337Z,994.13
2018-12-02T05:39:19.231Z,994.10
2018-12-02T05:41:11.908Z,994.12
2018-12-02T05:42:11.781Z,994.11
2018-12-02T05:44:04.449Z,994.06
2018-12-02T05:45:04.339Z,994.06
2018-12-02T05:46:57.016Z,994.06
2018-12-02T05:47:56.892Z,994.04
2018-12-02T05:49:49.567Z,994.03
2018-12-02T05:50:49.445Z,993.99
2018-12-02T05:52:42.130Z,993.99
2018-12-02T05:53:41.998Z,993.92
2018-12-02T05:55:34.674Z,993.92
2018-12-02T05:56:34.554Z,993.95
2018-12-02T05:58:27.234Z,993.99
2018-12-02T05:59:27.106Z,993.97
2018-12-02T06:01:19.792Z,993.92
2018-12-02T06:02:19.661Z,993.92
2018-12-02T06:04:12.331Z,993.92
2018-12-02T06:05:12.211Z,993.91
2018-12-02T06:07:04.904Z,993.91
2018-12-02T06:08:04.771Z,993.88
2018-12-02T06:09:57.429Z,993.87
2018-12-02T06:10:57.323Z,993.84
2018-12-02T06:12:50.000Z,993.82
2018-12-02T06:13:49.875Z,993.82
2018-12-02T06:15:42.540Z,993.78
2018-12-02T06:16:42.435Z,993.78
2018-12-02T06:18:35.117Z,993.79
2018-12-02T06:19:34.988Z,993.74
2018-12-02T06:21:27.668Z,993.69
2018-12-02T06:22:27.546Z,993.69
2018-12-02T06:24:20.215Z,993.67
2018-12-02T06:25:20.097Z,993.64
2018-12-02T06:27:12.772Z,993.63
2018-12-02T06:28:12.647Z,993.60
2018-12-02T06:30:05.315Z,993.61
2018-12-02T06:31:05.208Z,993.54
2018-12-02T06:32:57.890Z,993.54
2018-12-02T06:33:57.767Z,993.52
2018-12-02T06:35:50.420Z,993.51
2018-12-02T06:36:50.312Z,993.49
2018-12-02T06:38:42.994Z,993.51
2018-12-02T06:39:42.872Z,993.53
2018-12-02T06:41:35.550Z,993.46
2018-12-02T06:42:35.424Z,993.45
2018-12-02T06:44:29.076Z,993.33
2018-12-02T06:45:28.969Z,993.32
2018-12-02T06:47:21.649Z,993.30
2018-12-02T06:48:21.519Z,993.35
2018-12-02T06:50:14.185Z,993.35
2018-12-02T06:51:14.076Z,993.35
2018-12-02T06:53:06.757Z,993.33
2018-12-02T06:54:06.625Z,993.29
2018-12-02T06:55:59.294Z,993.33
2018-12-02T06:56:59.181Z,993.34
2018-12-02T06:58:51.863Z,993.40
2018-12-02T06:59:51.741Z,993.42
2018-12-02T07:01:44.422Z,993.44
2018-12-02T07:02:44.293Z,993.38
2018-12-02T07:04:36.964Z,993.41
2018-12-02T07:05:36.856Z,993.43
2018-12-02T07:07:29.533Z,993.39
2018-12-02T07:08:29.408Z,993.36
2018-12-02T07:10:22.064Z,993.34
2018-12-02T07:11:21.962Z,993.34
2018-12-02T07:13:14.642Z,993.33
2018-12-02T07:14:14.507Z,993.31
2018-12-02T07:16:07.179Z,993.34
2018-12-02T07:17:07.061Z,993.33
2018-12-02T07:18:59.741Z,993.26
2018-12-02T07:19:59.615Z,993.22
2018-12-02T07:21:52.297Z,993.19
2018-12-02T07:22:52.166Z,993.23
2018-12-02T07:24:44.827Z,993.18
2018-12-02T07:25:44.719Z,993.16
2018-12-02T07:27:37.401Z,993.11
2018-12-02T07:28:37.266Z,993.12
2018-12-02T07:30:29.934Z,993.11
2018-12-02T07:31:29.821Z,993.12
2018-12-02T07:33:22.499Z,993.10
2018-12-02T07:34:22.373Z,993.10
2018-12-02T07:36:15.039Z,993.16
2018-12-02T07:37:14.928Z,993.10
2018-12-02T07:39:07.613Z,993.10
2018-12-02T07:40:07.485Z,993.03
2018-12-02T07:42:00.146Z,993.02
2018-12-02T07:43:00.038Z,993.02
2018-12-02T07:44:52.721Z,992.98
2018-12-02T07:45:52.591Z,992.99
2018-12-02T07:47:45.257Z,992.97
2018-12-02T07:48:45.144Z,992.98
2018-12-02T07:50:37.827Z,992.94
2018-12-02T07:51:37.700Z,992.93
2018-12-02T07:53:30.377Z,992.88
2018-12-02T07:54:30.248Z,992.87
2018-12-02T07:56:22.920Z,992.88
2018-12-02T07:57:22.805Z,992.88
2018-12-02T07:59:15.485Z,992.90
2018-12-02T08:00:15.361Z,992.84
2018-12-02T08:02:08.020Z,992.86
2018-12-02T08:03:07.909Z,992.87
2018-12-02T08:05:00.592Z,992.75
2018-12-02T08:06:00.468Z,992.81
2018-12-02T08:07:53.138Z,992.80
2018-12-02T08:08:53.024Z,992.79
2018-12-02T08:10:45.790Z,992.70
2018-12-02T08:11:45.579Z,992.74
2018-12-02T08:13:38.255Z,992.70
2018-12-02T08:14:38.132Z,992.67
2018-12-02T08:16:30.797Z,992.66
2018-12-02T08:17:30.691Z,992.68
2018-12-02T08:19:23.406Z,992.67
2018-12-02T08:20:23.277Z,992.68
2018-12-02T08:22:15.938Z,992.66
2018-12-02T08:23:15.833Z,992.66
2018-12-02T08:25:08.505Z,992.58
2018-12-02T08:26:08.383Z,992.64
2018-12-02T08:28:01.043Z,992.62
2018-12-02T08:29:00.934Z,992.65
2018-12-02T08:30:53.626Z,992.57
2018-12-02T08:31:53.493Z,992.56
2018-12-02T08:33:46.178Z,992.61
2018-12-02T08:34:46.057Z,992.61
2018-12-02T08:36:38.725Z,992.49
2018-12-02T08:37:38.615Z,992.55
2018-12-02T08:39:31.290Z,992.62
2018-12-02T08:40:31.165Z,992.60
2018-12-02T08:42:23.830Z,992.56
2018-12-02T08:43:23.720Z,992.59
2018-12-02T08:45:16.407Z,992.60
2018-12-02T08:46:16.281Z,992.60
2018-12-02T08:48:08.945Z,992.67
2018-12-02T08:49:08.831Z,992.64
2018-12-02T08:51:01.517Z,992.65
2018-12-02T08:52:01.391Z,992.64
2018-12-02T08:53:54.069Z,992.66
2018-12-02T08:54:53.941Z,992.72
2018-12-02T08:56:46.609Z,992.63
2018-12-02T08:57:46.496Z,992.59
2018-12-02T08:59:39.225Z,992.60
2018-12-02T09:00:39.105Z,992.58
2018-12-02T09:02:31.762Z,992.53
2018-12-02T09:03:31.656Z,992.54
2018-12-02T09:05:24.336Z,992.56
2018-12-02T09:06:24.213Z,992.55
2018-12-02T09:08:16.882Z,992.54
2018-12-02T09:09:16.762Z,992.51
2018-12-02T09:11:09.446Z,992.51
2018-12-02T09:12:09.322Z,992.53
2018-12-02T09:14:02.011Z,992.50
2018-12-02T09:15:01.882Z,992.55
2018-12-02T09:16:54.556Z,992.49
2018-12-02T09:17:54.443Z,992.49
2018-12-02T09:19:47.127Z,992.46
2018-12-02T09:20:47.001Z,992.43
2018-12-02T09:22:39.668Z,992.45
2018-12-02T09:23:39.555Z,992.47
2018-12-02T09:25:32.391Z,992.45
2018-12-02T09:26:32.268Z,992.50
2018-12-02T09:28:24.921Z,992.42
2018-12-02T09:29:24.805Z,992.42
2018-12-02T09:31:17.566Z,992.51
2018-12-02T09:32:17.374Z,992.50
2018-12-02T09:34:10.059Z,992.43
2018-12-02T09:35:09.929Z,992.41
2018-12-02T09:37:02.596Z,992.44
2018-12-02T09:38:02.487Z,992.46
2018-12-02T09:39:55.165Z,992.47
2018-12-02T09:40:55.041Z,992.47
2018-12-02T09:42:47.705Z,992.43
2018-12-02T09:43:47.593Z,992.46
2018-12-02T09:45:40.274Z,992.41
2018-12-02T09:46:40.157Z,992.38
2018-12-02T09:48:32.821Z,992.35
2018-12-02T09:49:32.713Z,992.36
2018-12-02T09:51:25.397Z,992.35
2018-12-02T09:52:25.274Z,992.35
2018-12-02T09:54:23.239Z,992.39
2018-12-02T09:55:17.826Z,992.38
2018-12-02T09:57:10.496Z,992.42
2018-12-02T09:58:10.385Z,992.36
2018-12-02T10:00:03.068Z,992.31
2018-12-02T10:01:02.943Z,992.34
2018-12-02T10:02:55.603Z,992.30
2018-12-02T10:03:55.498Z,992.32
2018-12-02T10:05:48.194Z,992.35
2018-12-02T10:06:48.065Z,992.30
2018-12-02T10:08:40.752Z,992.35
2018-12-02T10:09:40.622Z,992.31
2018-12-02T10:11:33.291Z,992.35
2018-12-02T10:12:33.177Z,992.33
2018-12-02T10:14:25.864Z,992.38
2018-12-02T10:15:25.741Z,992.32
2018-12-02T10:17:19.403Z,992.33
2018-12-02T10:18:19.299Z,992.37
2018-12-02T10:20:11.984Z,992.33
2018-12-02T10:21:11.849Z,992.33
2018-12-02T10:23:04.530Z,992.33
2018-12-02T10:24:04.422Z,992.22
2018-12-02T10:25:57.099Z,992.34
2018-12-02T10:26:56.982Z,992.23
2018-12-02T10:28:49.664Z,992.23
2018-12-02T10:29:49.552Z,992.23
2018-12-02T10:31:42.201Z,992.25
2018-12-02T10:32:42.092Z,992.19
2018-12-02T10:34:34.773Z,992.20
2018-12-02T10:35:34.643Z,992.17
2018-12-02T10:37:27.308Z,992.22
2018-12-02T10:38:27.202Z,992.22
2018-12-02T10:40:19.907Z,992.20
2018-12-02T10:41:19.770Z,992.17
2018-12-02T10:43:12.443Z,992.23
2018-12-02T10:44:12.343Z,992.17
2018-12-02T10:46:05.014Z,992.16
2018-12-02T10:47:04.890Z,992.15
2018-12-02T10:48:57.554Z,992.15
2018-12-02T10:49:57.450Z,992.07
2018-12-02T10:51:50.128Z,992.13
2018-12-02T10:52:50.006Z,992.09
2018-12-02T10:54:42.691Z,992.11
2018-12-02T10:55:42.562Z,992.16
2018-12-02T10:57:35.238Z,992.10
2018-12-02T10:58:35.126Z,992.10
2018-12-02T11:00:27.808Z,992.10
2018-12-02T11:01:27.689Z,992.15
2018-12-02T11:03:20.357Z,992.12
2018-12-02T11:04:20.246Z,992.11
2018-12-02T11:06:12.930Z,992.11
2018-12-02T11:07:12.801Z,992.08
2018-12-02T11:09:05.493Z,992.10
2018-12-02T11:10:05.355Z,992.12
2018-12-02T11:11:58.021Z,992.17
2018-12-02T11:12:57.917Z,992.15
2018-12-02T11:14:50.602Z,992.17
2018-12-02T11:15:50.476Z,992.14
2018-12-02T11:17:43.144Z,992.07
2018-12-02T11:18:43.036Z,992.10
2018-12-02T11:20:35.723Z,992.09
2018-12-02T11:21:35.595Z,992.10
2018-12-02T11:23:28.268Z,992.01
2018-12-02T11:24:28.153Z,992.05
2018-12-02T11:26:20.859Z,992.10
2018-12-02T11:27:20.736Z,992.07
2018-12-02T11:29:13.396Z,992.04
2018-12-02T11:30:13.289Z,992.08
2018-12-02T11:32:05.975Z,991.98
2018-12-02T11:33:05.848Z,992.09
2018-12-02T11:34:58.537Z,992.10
2018-12-02T11:35:58.410Z,992.06
2018-12-02T11:37:51.077Z,992.03
2018-12-02T11:38:50.963Z,992.05
2018-12-02T11:40:43.650Z,992.04
2018-12-02T11:41:43.522Z,992.04
2018-12-02T11:43:36.200Z,992.04
2018-12-02T11:44:36.085Z,992.00
2018-12-02T11:46:28.770Z,992.05
2018-12-02T11:47:28.644Z,992.04
2018-12-02T11:49:21.311Z,992.04
2018-12-02T11:50:21.202Z,992.05
2018-12-02T11:52:13.889Z,992.08
2018-12-02T11:53:13.765Z,992.05
2018-12-02T11:55:06.444Z,992.07
2018-12-02T11:56:06.320Z,992.02
2018-12-02T11:57:59.005Z,992.08
2018-12-02T11:58:58.882Z,992.04
2018-12-02T12:00:51.574Z,992.12
2018-12-02T12:01:51.451Z,992.04
2018-12-02T12:03:44.115Z,992.08
2018-12-02T12:04:44.010Z,992.10
2018-12-02T12:06:36.691Z,992.10
2018-12-02T12:07:36.578Z,992.10
2018-12-02T12:09:29.257Z,992.04
2018-12-02T12:10:29.128Z,992.08
2018-12-02T12:12:21.801Z,992.01
2018-12-02T12:13:21.689Z,992.07
2018-12-02T12:15:14.375Z,992.05
2018-12-02T12:16:14.253Z,992.05
2018-12-02T12:18:06.921Z,992.05
2018-12-02T12:19:06.814Z,992.06
2018-12-02T12:20:59.502Z,992.09
2018-12-02T12:21:59.380Z,992.09
2018-12-02T12:23:52.042Z,992.14
2018-12-02T12:24:51.931Z,992.13
2018-12-02T12:26:44.617Z,992.05
2018-12-02T12:27:44.494Z,992.05
2018-12-02T12:29:37.182Z,992.00
2018-12-02T12:30:37.049Z,992.02
2018-12-02T12:32:29.732Z,992.06
2018-12-02T12:33:29.610Z,992.09
2018-12-02T12:35:22.291Z,992.12
2018-12-02T12:36:22.171Z,992.14
2018-12-02T12:38:14.836Z,992.16
2018-12-02T12:39:14.727Z,992.15
2018-12-02T12:41:07.417Z,992.12
2018-12-02T12:42:07.302Z,992.15
2018-12-02T12:43:59.962Z,992.17
2018-12-02T12:44:59.855Z,992.22
2018-12-02T12:46:52.539Z,992.21
2018-12-02T12:47:52.414Z,992.15
2018-12-02T12:49:45.099Z,992.20
2018-12-02T12:50:44.975Z,992.21
2018-12-02T12:52:37.643Z,992.24
2018-12-02T12:53:37.540Z,992.25
2018-12-02T12:55:30.224Z,992.24
2018-12-02T12:56:30.100Z,992.23
2018-12-02T12:58:22.770Z,992.27
2018-12-02T12:59:22.664Z,992.14
2018-12-02T13:01:15.351Z,992.19
2018-12-02T13:02:15.219Z,992.21
2018-12-02T13:04:07.892Z,992.14
2018-12-02T13:05:07.788Z,992.21
2018-12-02T13:07:00.475Z,992.22
2018-12-02T13:08:00.344Z,992.27
2018-12-02T13:09:53.039Z,992.24
2018-12-02T13:10:52.911Z,992.22
2018-12-02T13:12:45.582Z,992.24
2018-12-02T13:13:45.471Z,992.25
2018-12-02T13:15:38.153Z,992.25
2018-12-02T13:16:38.029Z,992.26
2018-12-02T13:18:30.699Z,992.18
2018-12-02T13:19:30.595Z,992.18
2018-12-02T13:21:23.316Z,992.19
2018-12-02T13:22:23.190Z,992.23
2018-12-02T13:24:15.892Z,992.27
2018-12-02T13:25:15.780Z,992.26
2018-12-02T13:27:08.468Z,992.27
2018-12-02T13:28:08.339Z,992.31
2018-12-02T13:30:01.026Z,992.34
2018-12-02T13:31:00.907Z,992.34
2018-12-02T13:32:53.571Z,992.40
2018-12-02T13:33:53.468Z,992.41
2018-12-02T13:35:46.155Z,992.43
2018-12-02T13:36:46.031Z,992.43
2018-12-02T13:38:38.698Z,992.51
2018-12-02T13:39:38.596Z,992.46
2018-12-02T13:41:31.770Z,992.53
2018-12-02T13:42:31.649Z,992.49
2018-12-02T13:44:24.315Z,992.53
2018-12-02T13:45:24.213Z,992.55
2018-12-02T13:47:16.897Z,992.55
2018-12-02T13:48:16.775Z,992.54
2018-12-02T13:50:09.462Z,992.59
2018-12-02T13:51:09.332Z,992.63
2018-12-02T13:53:02.008Z,992.62
2018-12-02T13:54:01.895Z,992.63
2018-12-02T13:55:54.577Z,992.65
2018-12-02T13:56:54.452Z,992.68
2018-12-02T13:58:47.123Z,992.70
2018-12-02T13:59:47.018Z,992.67
2018-12-02T14:01:39.704Z,992.76
2018-12-02T14:02:39.586Z,992.84
2018-12-02T14:04:32.254Z,992.87
2018-12-02T14:05:32.190Z,992.92
2018-12-02T14:07:24.826Z,992.93
2018-12-02T14:08:24.704Z,992.92
2018-12-02T14:10:17.387Z,992.95
2018-12-02T14:11:17.268Z,992.90
2018-12-02T14:13:09.933Z,992.88
2018-12-02T14:14:09.828Z,992.96
2018-12-02T14:16:02.510Z,992.93
2018-12-02T14:17:02.390Z,992.99
2018-12-02T14:18:55.058Z,992.94
2018-12-02T14:19:54.951Z,992.96
2018-12-02T14:21:47.634Z,992.99
2018-12-02T14:22:47.511Z,993.04
2018-12-02T14:24:40.181Z,993.08
2018-12-02T14:25:40.068Z,993.11
2018-12-02T14:27:32.753Z,993.06
2018-12-02T14:28:32.633Z,993.02
2018-12-02T14:30:25.331Z,993.11
2018-12-02T14:31:25.205Z,993.13
2018-12-02T14:33:17.873Z,993.14
2018-12-02T14:34:17.761Z,993.14
2018-12-02T14:36:10.451Z,993.23
2018-12-02T14:37:10.322Z,993.20
2018-12-02T14:39:02.993Z,993.18
2018-12-02T14:40:02.885Z,993.19
2018-12-02T14:41:55.572Z,993.24
2018-12-02T14:42:55.451Z,993.20
2018-12-02T14:44:48.117Z,993.26
2018-12-02T14:45:48.001Z,993.23
2018-12-02T14:47:40.698Z,993.21
2018-12-02T14:48:40.570Z,993.21
2018-12-02T14:50:33.243Z,993.22
2018-12-02T14:51:33.130Z,993.24
2018-12-02T14:53:25.821Z,993.26
2018-12-02T14:54:25.693Z,993.28
2018-12-02T14:56:18.385Z,993.33
2018-12-02T14:57:18.259Z,993.31
2018-12-02T14:59:10.922Z,993.37
2018-12-02T15:00:10.819Z,993.38
2018-12-02T15:02:03.505Z,993.40
2018-12-02T15:03:03.375Z,993.33
2018-12-02T15:04:57.046Z,993.36
2018-12-02T15:05:56.942Z,993.44
2018-12-02T15:07:49.623Z,993.37
2018-12-02T15:08:49.500Z,993.41
2018-12-02T15:10:42.166Z,993.51
2018-12-02T15:11:42.062Z,993.54
2018-12-02T15:13:34.744Z,993.47
2018-12-02T15:14:34.623Z,993.53
2018-12-02T15:16:27.306Z,993.55
2018-12-02T15:17:27.179Z,993.46
2018-12-02T15:19:19.855Z,993.57
2018-12-02T15:20:19.742Z,993.52
2018-12-02T15:22:12.443Z,993.63
2018-12-02T15:23:12.301Z,993.41
2018-12-02T15:25:04.974Z,993.44
2018-12-02T15:26:04.861Z,993.54
2018-12-02T15:27:57.543Z,993.58
2018-12-02T15:28:57.425Z,993.49
2018-12-02T15:30:50.129Z,993.51
2018-12-02T15:31:49.999Z,993.51
2018-12-02T15:33:42.663Z,993.50
2018-12-02T15:34:42.559Z,993.53
2018-12-02T15:36:35.238Z,993.62
2018-12-02T15:37:35.280Z,993.60
2018-12-02T15:39:27.783Z,993.66
2018-12-02T15:40:27.683Z,993.73
2018-12-02T15:42:20.399Z,993.66
2018-12-02T15:43:20.256Z,993.66
2018-12-02T15:45:13.414Z,993.71
2018-12-02T15:46:12.902Z,993.68
2018-12-02T15:48:06.503Z,993.71
2018-12-02T15:49:06.385Z,993.69
2018-12-02T15:50:59.072Z,993.73
2018-12-02T15:51:58.945Z,993.76
2018-12-02T15:53:51.616Z,993.74
2018-12-02T15:54:51.507Z,993.76
2018-12-02T15:56:44.194Z,993.76
2018-12-02T15:57:44.067Z,993.87
2018-12-02T15:59:36.730Z,993.85
2018-12-02T16:00:36.624Z,993.76
2018-12-02T16:02:29.306Z,993.93
2018-12-02T16:03:29.182Z,993.90
2018-12-02T16:05:21.850Z,993.92
2018-12-02T16:06:21.747Z,993.92
2018-12-02T16:08:14.442Z,993.93
2018-12-02T16:09:15.038Z,993.93
2018-12-02T16:11:07.015Z,993.92
2018-12-02T16:12:06.878Z,993.94
2018-12-02T16:14:00.037Z,993.96
2018-12-02T16:14:59.937Z,994.01
2018-12-02T16:16:53.030Z,993.88
2018-12-02T16:17:52.488Z,993.99
2018-12-02T16:19:45.160Z,993.93
2018-12-02T16:20:45.048Z,993.98
2018-12-02T16:22:37.734Z,993.95
2018-12-02T16:23:37.611Z,993.93
2018-12-02T16:25:30.281Z,994.07
2018-12-02T16:26:30.176Z,994.05
2018-12-02T16:28:22.862Z,994.01
2018-12-02T16:29:22.737Z,993.96
2018-12-02T16:31:15.424Z,993.96
2018-12-02T16:32:15.306Z,993.90
2018-12-02T16:34:07.970Z,993.91
2018-12-02T16:35:07.877Z,993.96
2018-12-02T16:37:00.551Z,993.98
2018-12-02T16:38:00.424Z,993.98
2018-12-02T16:39:53.097Z,994.06
2018-12-02T16:40:52.986Z,994.04
2018-12-02T16:42:45.674Z,994.01
2018-12-02T16:43:45.544Z,993.97
2018-12-02T16:45:38.219Z,993.96
2018-12-02T16:46:38.104Z,994.05
2018-12-02T16:48:30.791Z,994.01
2018-12-02T16:49:30.663Z,993.99
2018-12-02T16:51:23.352Z,994.02
2018-12-02T16:52:23.223Z,993.99
2018-12-02T16:54:15.891Z,994.06
2018-12-02T16:55:15.785Z,994.01
2018-12-02T16:57:08.470Z,994.06
2018-12-02T16:58:08.353Z,994.00
2018-12-02T17:00:01.015Z,994.03
2018-12-02T17:01:00.904Z,994.07
2018-12-02T17:02:53.608Z,994.06
2018-12-02T17:03:53.473Z,994.04
2018-12-02T17:05:46.145Z,994.07
2018-12-02T17:06:46.035Z,994.12
2018-12-02T17:08:38.725Z,994.06
2018-12-02T17:09:38.603Z,994.02
2018-12-02T17:11:31.291Z,994.02
2018-12-02T17:12:31.162Z,993.99
2018-12-02T17:14:23.825Z,994.06
2018-12-02T17:15:23.719Z,994.04
2018-12-02T17:17:16.407Z,994.11
2018-12-02T17:18:16.283Z,994.10
2018-12-02T17:20:08.952Z,994.06
2018-12-02T17:21:08.838Z,994.08
2018-12-02T17:23:01.525Z,994.11
2018-12-02T17:24:01.401Z,994.13
2018-12-02T17:25:54.078Z,994.18
2018-12-02T17:26:53.960Z,994.14
2018-12-02T17:28:46.645Z,994.16
2018-12-02T17:29:46.518Z,994.13
2018-12-02T17:31:39.210Z,994.15
2018-12-02T17:32:39.084Z,994.19
2018-12-02T17:34:31.746Z,994.18
2018-12-02T17:35:31.639Z,994.19
2018-12-02T17:37:24.324Z,994.27
2018-12-02T17:38:24.196Z,994.22
2018-12-02T17:40:16.867Z,994.16
2018-12-02T17:41:16.753Z,994.13
2018-12-02T17:43:09.440Z,994.13
2018-12-02T17:44:09.322Z,994.14
2018-12-02T17:46:02.009Z,994.13
2018-12-02T17:47:01.886Z,994.13
2018-12-02T17:48:54.578Z,994.15
2018-12-02T17:49:54.461Z,994.18
2018-12-02T17:51:47.122Z,994.20
2018-12-02T17:52:47.012Z,994.21
2018-12-02T17:54:39.719Z,994.24
2018-12-02T17:55:39.596Z,994.28
2018-12-02T17:57:32.281Z,994.18
2018-12-02T17:58:32.159Z,994.25
2018-12-02T18:00:24.828Z,994.21
2018-12-02T18:01:24.720Z,994.18
2018-12-02T18:03:17.406Z,994.14
2018-12-02T18:04:17.281Z,994.10
2018-12-02T18:06:09.946Z,994.11
2018-12-02T18:07:09.840Z,994.20
2018-12-02T18:09:02.527Z,994.19
2018-12-02T18:10:02.407Z,994.18
2018-12-02T18:11:55.074Z,994.16
2018-12-02T18:12:54.972Z,994.17
2018-12-02T18:14:47.651Z,994.18
2018-12-02T18:15:47.531Z,994.21
2018-12-02T18:17:40.214Z,994.15
2018-12-02T18:18:40.085Z,994.17
2018-12-02T18:20:32.759Z,994.19
2018-12-02T18:21:32.648Z,994.15
2018-12-02T18:23:25.333Z,994.15
2018-12-02T18:24:25.209Z,994.14
2018-12-02T18:26:17.875Z,994.14
2018-12-02T18:27:17.774Z,994.10
2018-12-02T18:29:10.451Z,994.13
2018-12-02T18:30:10.330Z,994.11
2018-12-02T18:32:02.998Z,994.15
2018-12-02T18:33:02.896Z,994.12
2018-12-02T18:34:55.576Z,994.19
2018-12-02T18:35:55.453Z,994.18
2018-12-02T18:37:48.138Z,994.18
2018-12-02T18:38:48.016Z,994.19
2018-12-02T18:40:40.696Z,994.20
2018-12-02T18:41:40.585Z,994.22
2018-12-02T18:43:33.273Z,994.19
2018-12-02T18:44:33.142Z,994.21
2018-12-02T18:46:25.820Z,994.23
2018-12-02T18:47:25.703Z,994.23
2018-12-02T18:49:18.391Z,994.24
2018-12-02T18:50:18.267Z,994.32
2018-12-02T18:52:10.935Z,994.38
2018-12-02T18:53:10.846Z,994.36
2018-12-02T18:55:03.502Z,994.36
2018-12-02T18:56:03.390Z,994.33
2018-12-02T18:57:56.075Z,994.38
2018-12-02T18:58:55.947Z,994.41
2018-12-02T19:00:48.635Z,994.36
2018-12-02T19:01:48.533Z,994.35
2018-12-02T19:03:41.223Z,994.32
2018-12-02T19:04:41.107Z,994.36
2018-12-02T19:06:33.764Z,994.41
2018-12-02T19:07:33.659Z,994.48
2018-12-02T19:09:26.358Z,994.61
2018-12-02T19:10:26.268Z,994.58
2018-12-02T19:12:18.904Z,994.60
2018-12-02T19:13:18.798Z,994.46
2018-12-02T19:15:11.486Z,994.55
2018-12-02T19:16:11.472Z,994.57
2018-12-02T19:18:04.076Z,994.56
2018-12-02T19:19:03.935Z,994.47
2018-12-02T19:20:56.595Z,994.60
2018-12-02T19:21:56.487Z,994.59
2018-12-02T19:23:49.173Z,994.59
2018-12-02T19:24:49.054Z,994.59
2018-12-02T19:26:41.724Z,994.60
2018-12-02T19:27:41.672Z,994.58
2018-12-02T19:29:34.296Z,994.57
2018-12-02T19:30:34.281Z,994.55
2018-12-02T19:32:26.843Z,994.52
2018-12-02T19:33:26.733Z,994.54
2018-12-02T19:35:19.419Z,994.56
2018-12-02T19:36:19.294Z,994.61
2018-12-02T19:38:11.979Z,994.60
2018-12-02T19:39:11.846Z,994.57
2018-12-02T19:41:04.519Z,994.59
2018-12-02T19:42:04.411Z,994.56
2018-12-02T19:43:57.099Z,994.54
2018-12-02T19:44:56.968Z,994.61
2018-12-02T19:46:49.638Z,994.63
2018-12-02T19:47:49.529Z,994.66
2018-12-02T19:49:42.711Z,994.67
2018-12-02T19:50:42.584Z,994.66
2018-12-02T19:52:35.254Z,994.66
2018-12-02T19:53:35.139Z,994.65
2018-12-02T19:55:27.830Z,994.67
2018-12-02T19:56:27.696Z,994.63
2018-12-02T19:58:20.379Z,994.61
2018-12-02T19:59:20.257Z,994.62
2018-12-02T20:01:13.106Z,994.58
2018-12-02T20:02:12.819Z,994.58
2018-12-02T20:04:05.501Z,994.64
2018-12-02T20:05:05.378Z,994.58
2018-12-02T20:06:58.117Z,994.61
2018-12-02T20:07:58.005Z,994.63
2018-12-02T20:09:50.939Z,994.54
2018-12-02T20:10:50.818Z,994.60
2018-12-02T20:12:43.487Z,994.57
2018-12-02T20:13:43.384Z,994.57
2018-12-02T20:15:36.068Z,994.55
2018-12-02T20:16:35.939Z,994.55
2018-12-02T20:18:28.626Z,994.59
2018-12-02T20:19:28.499Z,994.56
2018-12-02T20:21:21.174Z,994.56
2018-12-02T20:22:21.063Z,994.60
2018-12-02T20:24:13.747Z,994.64
2018-12-02T20:25:13.621Z,994.59
2018-12-02T20:27:06.293Z,994.55
2018-12-02T20:28:06.186Z,994.59
2018-12-02T20:29:59.343Z,994.58
2018-12-02T20:30:58.957Z,994.55
2018-12-02T20:32:51.619Z,994.52
2018-12-02T20:33:51.375Z,994.55
2018-12-02T20:35:44.318Z,994.51
2018-12-02T20:36:43.943Z,994.51
2018-12-02T20:38:36.609Z,994.43
2018-12-02T20:39:36.501Z,994.53
2018-12-02T20:41:29.580Z,994.48
2018-12-02T20:42:29.063Z,994.51
2018-12-02T20:44:21.750Z,994.47
2018-12-02T20:45:21.836Z,994.48
2018-12-02T20:47:14.300Z,994.47
2018-12-02T20:48:14.191Z,994.45
2018-12-02T20:50:06.877Z,994.45
2018-12-02T20:51:06.748Z,994.50
2018-12-02T20:52:59.420Z,994.46
2018-12-02T20:53:59.312Z,994.48
2018-12-02T20:55:52.019Z,994.43
2018-12-02T20:56:51.880Z,994.50
2018-12-02T20:58:44.543Z,994.45
2018-12-02T20:59:44.437Z,994.47
2018-12-02T21:01:38.110Z,994.42
2018-12-02T21:02:37.016Z,994.45
2018-12-02T21:04:29.685Z,994.40
2018-12-02T21:05:29.567Z,994.44
2018-12-02T21:07:22.235Z,994.43
2018-12-02T21:08:22.129Z,994.44
2018-12-02T21:10:15.025Z,994.39
2018-12-02T21:11:14.701Z,994.41
2018-12-02T21:13:07.358Z,994.39
2018-12-02T21:14:07.251Z,994.43
2018-12-02T21:15:59.938Z,994.43
2018-12-02T21:16:59.810Z,994.42
2018-12-02T21:18:52.485Z,994.41
2018-12-02T21:19:52.371Z,994.42
2018-12-02T21:21:45.061Z,994.42
2018-12-02T21:22:45.004Z,994.45
2018-12-02T21:24:37.623Z,994.49
2018-12-02T21:25:37.563Z,994.51
2018-12-02T21:27:30.186Z,994.43
2018-12-02T21:28:30.080Z,994.42
2018-12-02T21:30:22.770Z,994.41
2018-12-02T21:31:22.649Z,994.37
2018-12-02T21:33:15.321Z,994.38
2018-12-02T21:34:15.209Z,994.39
2018-12-02T21:36:07.900Z,994.30
2018-12-02T21:37:07.769Z,994.33
2018-12-02T21:39:00.460Z,994.32
2018-12-02T21:40:00.348Z,994.29
2018-12-02T21:41:53.030Z,994.28
2018-12-02T21:42:52.917Z,994.27
2018-12-02T21:44:45.599Z,994.30
2018-12-02T21:45:45.479Z,994.27
2018-12-02T21:47:38.145Z,994.25
2018-12-02T21:48:38.036Z,994.22
2018-12-02T21:50:30.730Z,994.20
2018-12-02T21:51:30.593Z,994.28
2018-12-02T21:53:23.268Z,994.20
2018-12-02T21:54:23.158Z,994.23
2018-12-02T21:56:15.841Z,994.20
2018-12-02T21:57:15.721Z,994.28
2018-12-02T21:59:08.403Z,994.20
2018-12-02T22:00:08.285Z,994.26
2018-12-02T22:02:00.957Z,994.25
2018-12-02T22:03:00.849Z,994.27
2018-12-02T22:04:53.533Z,994.24
2018-12-02T22:05:53.404Z,994.24
2018-12-02T22:07:46.080Z,994.21
2018-12-02T22:08:45.965Z,994.22
2018-12-02T22:10:38.650Z,994.20
2018-12-02T22:11:38.524Z,994.16
2018-12-02T22:13:31.196Z,994.22
2018-12-02T22:14:31.097Z,994.18
2018-12-02T22:16:23.773Z,994.19
2018-12-02T22:17:23.647Z,994.21
2018-12-02T22:19:16.331Z,994.16
2018-12-02T22:20:16.218Z,994.19
2018-12-02T22:22:08.886Z,994.15
2018-12-02T22:23:08.775Z,994.11
2018-12-02T22:25:01.467Z,994.14
2018-12-02T22:26:01.349Z,994.16
2018-12-02T22:27:54.011Z,994.13
2018-12-02T22:28:53.906Z,994.20
2018-12-02T22:30:46.632Z,994.22
2018-12-02T22:31:46.473Z,994.28
2018-12-02T22:33:39.136Z,994.27
2018-12-02T22:34:39.032Z,994.28
2018-12-02T22:36:31.716Z,994.27
2018-12-02T22:37:31.598Z,994.26
2018-12-02T22:39:24.282Z,994.27
2018-12-02T22:40:24.154Z,994.24
2018-12-02T22:42:16.824Z,994.21
2018-12-02T22:43:16.721Z,994.18
2018-12-02T22:45:09.398Z,994.16
2018-12-02T22:46:09.277Z,994.16
2018-12-02T22:48:01.969Z,994.11
2018-12-02T22:49:01.840Z,994.12
2018-12-02T22:50:54.526Z,994.11
2018-12-02T22:51:54.399Z,994.11
2018-12-02T22:53:47.068Z,994.19
2018-12-02T22:54:46.962Z,994.11
2018-12-02T22:56:39.647Z,994.15